Time;durP1;ratioP1;P1;durP2;ratioP2;P2;SDS_P1;SDS_P2;PMS_P1;PMS_P2;Temp;Humidity;BMP_temperature;BMP_pressure;BME280_temperature;BME280_humidity;BME280_pressure;Samples;Min_cycle;Max_cycle;Signal;HPM_P1;HPM_P2
2021/12/17 00:00:59;;;;;;;17.23;9.48;;;8.40;99.90;;;;;;4974118;28;20054;-73
2021/12/17 00:03:39;;;;;;;20.65;9.98;;;8.40;99.90;;;;;;4958651;28;20058;-76
2021/12/17 00:08:38;;;;;;;18.98;9.35;;;8.40;99.90;;;;;;4958144;28;20058;-76
2021/12/17 00:11:05;;;;;;;17.67;9.30;;;8.60;99.90;;;;;;4957059;28;20093;-76
2021/12/17 00:13:31;;;;;;;16.92;8.98;;;8.90;99.90;;;;;;4957774;28;20097;-76
2021/12/17 00:15:57;;;;;;;19.58;10.07;;;8.30;99.90;;;;;;4973781;28;20078;-76
2021/12/17 00:18:30;;;;;;;18.13;9.13;;;8.90;99.90;;;;;;4957845;28;20109;-76
2021/12/17 00:53:18;;;;;;;29.13;12.23;;;8.70;99.90;;;;;;5034006;28;20092;-75
2021/12/17 00:55:45;;;;;;;26.00;12.00;;;8.30;99.90;;;;;;5033913;28;20057;-76
2021/12/17 00:58:10;;;;;;;26.45;11.60;;;8.30;99.90;;;;;;5015868;28;20067;-76
2021/12/17 01:00:36;;;;;;;25.27;12.00;;;8.30;99.90;;;;;;5033850;28;20041;-76
2021/12/17 01:03:03;;;;;;;27.55;12.70;;;8.30;99.90;;;;;;5016162;28;20057;-76
2021/12/17 01:05:30;;;;;;;25.95;11.98;;;8.30;99.90;;;;;;5016270;28;20076;-74
2021/12/17 01:07:58;;;;;;;26.02;12.35;;;8.40;99.90;;;;;;5033584;28;20045;-75
2021/12/17 01:10:29;;;;;;;29.42;12.25;;;8.30;99.90;;;;;;4998794;28;20099;-76
2021/12/17 01:12:56;;;;;;;29.23;12.27;;;8.30;99.90;;;;;;5016292;28;20045;-74
2021/12/17 01:15:22;;;;;;;25.73;11.93;;;8.40;99.90;;;;;;5033037;28;20099;-76
2021/12/17 01:17:52;;;;;;;25.80;11.55;;;8.30;99.90;;;;;;5015936;28;20053;-76
2021/12/17 01:36:32;;;;;;;16.88;7.55;;;8.20;99.90;;;;;;4972376;28;20062;-77
2021/12/17 01:44:05;;;;;;;12.35;5.65;;;8.20;99.90;;;;;;4972282;28;20479;-78
2021/12/17 01:46:34;;;;;;;12.38;4.68;;;8.10;99.90;;;;;;4972103;28;20065;-79
2021/12/17 02:00:05;;;;;;;10.25;4.25;;;8.20;99.90;;;;;;5033124;28;20091;-76
2021/12/17 02:02:40;;;;;;;10.93;4.43;;;8.40;99.90;;;;;;5032358;28;20058;-80
2021/12/17 02:05:06;;;;;;;12.32;4.25;;;8.10;99.90;;;;;;5033003;28;20045;-79
2021/12/17 02:07:32;;;;;;;10.77;4.18;;;8.10;99.90;;;;;;5015321;28;20049;-78
2021/12/17 02:28:54;;;;;;;9.77;3.80;;;8.10;99.90;;;;;;5018938;28;20060;-79
2021/12/17 02:31:26;;;;;;;9.75;3.83;;;8.10;99.90;;;;;;5036766;28;20408;-75
2021/12/17 02:33:53;;;;;;;;;;;8.40;99.90;;;;;;5018788;28;20053;-77
2021/12/17 02:36:24;;;;;;;10.43;3.90;;;8.60;99.90;;;;;;5018822;28;19928;-76
2021/12/17 02:38:50;;;;;;;10.98;3.90;;;8.00;99.90;;;;;;5036634;28;20058;-77
2021/12/17 02:46:45;;;;;;;9.57;3.47;;;8.00;99.90;;;;;;5035957;28;20057;-75
2021/12/17 02:49:11;;;;;;;8.63;3.50;;;8.00;99.90;;;;;;5018660;28;20140;-76
2021/12/17 02:51:36;;;;;;;8.38;3.35;;;8.00;99.90;;;;;;5018664;28;20053;-76
2021/12/17 02:54:02;;;;;;;10.88;3.90;;;7.90;99.90;;;;;;5018490;28;20045;-76
2021/12/17 02:56:28;;;;;;;10.18;4.05;;;7.90;99.90;;;;;;5036274;28;20053;-74
2021/12/17 02:58:55;;;;;;;11.45;3.70;;;8.30;99.90;;;;;;5018253;28;20431;-77
2021/12/17 03:01:21;;;;;;;9.80;3.70;;;7.80;99.90;;;;;;5035900;28;20049;-76
2021/12/17 03:03:51;;;;;;;9.07;3.58;;;7.80;99.90;;;;;;5036281;28;20121;-76
2021/12/17 03:06:19;;;;;;;9.23;3.80;;;7.90;99.90;;;;;;5017675;28;20053;-76
2021/12/17 03:08:47;;;;;;;10.50;3.90;;;8.30;99.90;;;;;;5018535;28;20420;-76
2021/12/17 03:11:13;;;;;;;10.95;4.13;;;7.90;99.90;;;;;;5018363;28;20496;-76
2021/12/17 03:13:39;;;;;;;8.68;3.40;;;7.90;99.90;;;;;;5035622;28;20382;-76
2021/12/17 03:19:02;;;;;;;10.00;3.80;;;7.90;99.90;;;;;;5017770;28;20151;-75
2021/12/17 03:24:18;;;;;;;10.10;3.67;;;8.20;99.90;;;;;;5017826;28;20115;-76
2021/12/17 03:26:44;;;;;;;9.18;3.65;;;8.40;99.90;;;;;;5035700;28;20050;-75
2021/12/17 03:29:11;;;;;;;10.07;3.92;;;7.80;99.90;;;;;;5035794;28;20112;-76
2021/12/17 03:31:37;;;;;;;8.93;3.67;;;7.80;99.90;;;;;;5035683;28;20042;-76
2021/12/17 03:34:19;;;;;;;10.50;4.47;;;7.80;99.90;;;;;;5016871;28;20113;-76
2021/12/17 03:36:47;;;;;;;11.00;3.83;;;7.80;99.90;;;;;;5017001;28;20106;-76
2021/12/17 03:39:14;;;;;;;10.18;3.97;;;8.50;99.90;;;;;;5035418;28;20049;-77
2021/12/17 03:41:47;;;;;;;10.60;3.92;;;8.30;99.90;;;;;;5035493;28;20041;-76
2021/12/17 03:44:12;;;;;;;11.27;4.35;;;8.40;99.90;;;;;;5035559;28;20071;-76
2021/12/17 03:46:38;;;;;;;12.93;4.70;;;7.80;99.90;;;;;;5017516;28;20441;-75
2021/12/17 03:49:04;;;;;;;17.48;5.15;;;7.70;99.90;;;;;;5035276;28;20107;-76
2021/12/17 03:51:30;;;;;;;12.65;5.30;;;7.70;99.90;;;;;;5035161;28;20038;-75
2021/12/17 03:53:58;;;;;;;14.90;5.78;;;8.20;99.90;;;;;;5016935;28;20053;-74
2021/12/17 03:56:26;;;;;;;16.85;6.53;;;7.70;99.90;;;;;;5013783;28;20089;-77
2021/12/17 03:58:54;;;;;;;16.25;6.80;;;7.70;99.90;;;;;;5014220;28;20089;-76
2021/12/17 04:01:20;;;;;;;15.10;6.28;;;7.80;99.90;;;;;;5015209;28;20046;-76
2021/12/17 04:03:46;;;;;;;19.90;7.03;;;8.00;99.90;;;;;;5014328;28;20060;-77
2021/12/17 04:06:12;;;;;;;14.95;6.03;;;7.80;99.90;;;;;;5014782;28;20046;-76
2021/12/17 04:08:38;;;;;;;14.10;5.95;;;8.30;99.90;;;;;;5014770;28;20078;-75
2021/12/17 04:11:06;;;;;;;13.77;5.40;;;7.80;99.90;;;;;;5015254;28;20506;-76
2021/12/17 04:13:38;;;;;;;13.05;6.30;;;8.20;99.90;;;;;;5015161;28;20050;-76
2021/12/17 04:16:08;;;;;;;15.73;5.57;;;7.80;99.90;;;;;;5015094;28;20042;-77
2021/12/17 04:18:40;;;;;;;13.48;5.25;;;7.80;99.90;;;;;;5013146;28;20112;-76
2021/12/17 04:21:13;;;;;;;13.57;5.45;;;7.80;99.90;;;;;;5034655;28;20128;-80
2021/12/17 04:23:40;;;;;;;13.35;5.68;;;7.80;99.90;;;;;;5016231;28;20053;-80
2021/12/17 04:26:06;;;;;;;14.02;6.38;;;8.50;99.90;;;;;;5034485;28;20053;-79
2021/12/17 04:28:32;;;;;;;14.27;6.57;;;7.80;99.90;;;;;;5016778;28;20056;-76
2021/12/17 04:30:57;;;;;;;19.23;6.95;;;8.10;99.90;;;;;;5017047;28;20041;-80
2021/12/17 04:33:23;;;;;;;16.38;6.78;;;7.80;99.90;;;;;;5016807;28;20547;-78
2021/12/17 04:35:48;;;;;;;19.17;7.18;;;7.80;99.90;;;;;;5034326;28;20435;-77
2021/12/17 04:38:16;;;;;;;16.05;6.97;;;7.80;99.90;;;;;;5016576;28;20104;-80
2021/12/17 04:40:43;;;;;;;16.45;6.80;;;7.80;99.90;;;;;;5016249;28;20168;-77
2021/12/17 04:45:41;;;;;;;18.35;7.05;;;7.90;99.90;;;;;;5034097;28;20050;-78
2021/12/17 04:59:22;;;;;;;14.80;6.50;;;7.90;99.90;;;;;;4957093;28;20042;-79
2021/12/17 05:01:48;;;;;;;13.45;6.63;;;7.90;99.90;;;;;;4956996;28;20065;-77
2021/12/17 05:04:14;;;;;;;13.65;6.47;;;8.20;99.90;;;;;;4972492;28;20141;-78
2021/12/17 05:06:40;;;;;;;13.20;6.47;;;8.20;99.90;;;;;;4956746;28;20595;-77
2021/12/17 05:09:20;;;;;;;13.27;6.00;;;8.30;99.90;;;;;;4972962;28;20053;-78
2021/12/17 05:20:13;;;;;;;12.80;5.80;;;7.80;99.90;;;;;;4896474;29;20512;-76
2021/12/17 05:22:39;;;;;;;14.93;7.18;;;7.80;99.90;;;;;;4896427;29;20055;-76
2021/12/17 05:25:05;;;;;;;13.52;6.50;;;7.80;99.90;;;;;;4896375;29;20423;-76
2021/12/17 05:27:30;;;;;;;13.65;6.47;;;7.80;99.90;;;;;;4895707;29;20061;-75
2021/12/17 05:29:56;;;;;;;14.43;6.38;;;7.80;99.90;;;;;;4889050;29;20504;-73
2021/12/17 05:32:22;;;;;;;15.80;6.95;;;7.90;99.90;;;;;;4934034;29;20055;-75
2021/12/17 05:34:47;;;;;;;21.42;6.97;;;7.80;99.90;;;;;;4918187;29;20058;-75
2021/12/17 05:37:13;;;;;;;19.10;7.00;;;8.30;99.90;;;;;;4918184;29;20052;-76
2021/12/17 05:39:39;;;;;;;15.13;6.80;;;8.20;99.90;;;;;;4934051;29;20438;-77
2021/12/17 05:42:05;;;;;;;15.57;6.68;;;7.80;99.90;;;;;;4934040;29;20070;-76
2021/12/17 05:44:30;;;;;;;16.05;6.75;;;7.80;99.90;;;;;;4917458;29;20051;-76
2021/12/17 05:46:56;;;;;;;18.05;7.68;;;7.80;99.90;;;;;;4917993;29;20052;-75
2021/12/17 05:49:24;;;;;;;15.60;6.35;;;7.80;99.90;;;;;;4918037;29;20055;-75
2021/12/17 05:51:51;;;;;;;15.15;6.78;;;7.70;99.90;;;;;;4994701;28;20374;-77
2021/12/17 05:54:17;;;;;;;15.38;6.57;;;8.00;99.90;;;;;;5033207;28;20481;-75
2021/12/17 05:56:43;;;;;;;15.18;6.75;;;7.80;99.90;;;;;;5032374;28;20057;-76
2021/12/17 05:59:09;;;;;;;15.55;7.43;;;7.90;99.90;;;;;;5015485;28;20584;-72
2021/12/17 06:01:36;;;;;;;14.40;7.35;;;7.80;99.90;;;;;;5032869;28;20103;-75
2021/12/17 06:04:02;;;;;;;17.98;8.05;;;7.70;99.90;;;;;;5032892;28;20041;-75
2021/12/17 06:06:33;;;;;;;16.30;7.00;;;7.80;99.90;;;;;;5033025;28;20050;-76
2021/12/17 06:09:05;;;;;;;16.00;7.07;;;7.70;99.90;;;;;;5033023;28;20042;-74
2021/12/17 06:11:31;;;;;;;14.73;6.60;;;7.70;99.90;;;;;;5014910;28;20046;-76
2021/12/17 06:13:57;;;;;;;15.63;7.20;;;7.70;99.90;;;;;;5015470;28;20488;-74
2021/12/17 06:16:22;;;;;;;15.40;6.85;;;7.70;99.90;;;;;;5032368;28;20041;-75
2021/12/17 06:18:48;;;;;;;18.35;7.47;;;8.50;99.90;;;;;;5032954;28;20050;-76
2021/12/17 06:21:14;;;;;;;14.77;6.80;;;8.10;99.90;;;;;;5032969;28;20132;-76
2021/12/17 06:23:40;;;;;;;16.92;7.72;;;7.70;99.90;;;;;;5032551;28;20766;-76
2021/12/17 06:26:07;;;;;;;19.20;7.60;;;7.70;99.90;;;;;;5032688;28;20045;-75
2021/12/17 06:28:33;;;;;;;15.35;7.00;;;7.80;99.90;;;;;;5010359;28;20733;-71
2021/12/17 06:30:59;;;;;;;16.75;6.72;;;7.80;99.90;;;;;;5027909;28;20042;-71
2021/12/17 06:33:24;;;;;;;16.02;6.65;;;7.80;99.90;;;;;;5014523;28;20513;-73
2021/12/17 06:35:50;;;;;;;17.00;7.38;;;7.80;99.90;;;;;;5032300;28;20084;-72
2021/12/17 06:38:15;;;;;;;14.50;6.93;;;7.80;99.90;;;;;;5032183;28;20064;-75
2021/12/17 06:40:41;;;;;;;13.20;6.03;;;7.80;99.90;;;;;;5030801;28;20057;-75
2021/12/17 06:43:07;;;;;;;12.38;4.82;;;7.80;99.90;;;;;;5032006;28;20050;-77
2021/12/17 06:45:57;;;;;;;11.88;5.05;;;7.80;99.90;;;;;;5013913;28;20061;-82
2021/12/17 06:48:25;;;;;;;12.32;4.68;;;7.90;99.90;;;;;;5031311;28;20136;-75
2021/12/17 07:06:53;;;;;;;12.25;4.68;;;7.80;99.90;;;;;;5034249;28;20554;-76
2021/12/17 07:17:10;;;;;;;14.57;5.20;;;8.40;99.90;;;;;;5055878;28;20080;-77
2021/12/17 07:17:35;;;;;;;11.00;4.13;;;7.90;99.90;;;;;;5037493;28;20484;-75
2021/12/17 07:23:06;;;;;;;13.13;4.82;;;7.80;99.90;;;;;;5055429;28;20045;-78
2021/12/17 07:33:47;;;;;;;12.10;4.65;;;8.30;99.90;;;;;;5049732;28;20052;-74
2021/12/17 07:36:16;;;;;;;12.18;4.95;;;7.90;99.90;;;;;;5027937;28;20094;-73
2021/12/17 07:38:49;;;;;;;14.63;5.25;;;7.90;99.90;;;;;;5011605;28;20057;-75
2021/12/17 07:41:16;;;;;;;14.65;5.47;;;8.20;99.90;;;;;;5019138;28;20057;-79
2021/12/17 07:43:52;;;;;;;15.60;6.00;;;7.90;99.90;;;;;;5038474;28;20057;-80
2021/12/17 07:46:19;;;;;;;14.30;5.57;;;7.90;99.90;;;;;;5023726;28;20072;-77
2021/12/17 07:48:44;;;;;;;13.68;5.10;;;8.00;99.90;;;;;;5030036;28;20048;-74
2021/12/17 07:51:13;;;;;;;15.15;5.22;;;8.10;99.90;;;;;;5050606;28;20370;-80
2021/12/17 07:53:39;;;;;;;12.48;4.53;;;7.90;99.90;;;;;;5029830;28;20114;-77
2021/12/17 07:56:07;;;;;;;13.30;5.40;;;8.50;99.90;;;;;;5035556;28;20531;-76
2021/12/17 07:58:42;;;;;;;12.20;4.78;;;7.90;99.90;;;;;;5025267;28;20054;-73
2021/12/17 08:01:10;;;;;;;11.27;4.47;;;7.90;99.90;;;;;;5042084;28;20496;-78
2021/12/17 08:03:37;;;;;;;14.27;4.68;;;8.80;99.90;;;;;;5051027;28;20056;-73
2021/12/17 08:06:04;;;;;;;11.63;5.25;;;7.90;99.90;;;;;;5049638;28;20037;-74
2021/12/17 08:08:30;;;;;;;14.32;5.63;;;7.90;99.90;;;;;;5041807;28;20080;-73
2021/12/17 08:10:56;;;;;;;12.77;5.35;;;7.90;99.90;;;;;;5050072;28;20378;-73
2021/12/17 08:13:31;;;;;;;13.45;5.40;;;8.20;99.90;;;;;;5051471;28;20052;-71
2021/12/17 08:32:07;;;;;;;13.88;5.93;;;8.10;99.90;;;;;;5027988;28;20119;-70
2021/12/17 08:34:34;;;;;;;13.88;5.63;;;8.10;99.90;;;;;;5028114;28;20049;-71
2021/12/17 08:37:00;;;;;;;14.68;5.72;;;8.10;99.90;;;;;;5022586;28;20124;-71
2021/12/17 08:39:29;;;;;;;13.07;3.70;;;8.10;99.90;;;;;;4996459;28;20523;-68
2021/12/17 08:41:55;;;;;;;12.20;4.65;;;8.10;99.90;;;;;;5003312;28;20057;-68
2021/12/17 08:44:22;;;;;;;12.93;5.32;;;8.10;99.90;;;;;;5027133;28;20045;-68
2021/12/17 08:46:49;;;;;;;16.83;5.80;;;8.10;99.90;;;;;;5006361;28;20145;-69
2021/12/17 08:49:15;;;;;;;16.48;7.32;;;8.30;99.90;;;;;;5028331;28;20138;-69
2021/12/17 08:51:42;;;;;;;16.85;7.45;;;8.20;99.90;;;;;;5031203;28;20060;-68
2021/12/17 08:54:08;;;;;;;16.88;7.32;;;8.50;99.90;;;;;;5044429;28;20041;-69
2021/12/17 08:56:37;;;;;;;14.73;6.93;;;8.20;99.90;;;;;;5047472;28;20500;-68
2021/12/17 08:59:05;;;;;;;17.08;7.55;;;8.50;99.90;;;;;;5030476;28;20061;-67
2021/12/17 09:01:31;;;;;;;15.95;7.35;;;8.20;99.90;;;;;;5050170;28;20060;-68
2021/12/17 09:03:57;;;;;;;15.95;7.63;;;8.40;99.90;;;;;;5049211;28;20091;-69
2021/12/17 09:06:26;;;;;;;17.98;7.60;;;8.30;99.90;;;;;;5046805;28;20538;-70
2021/12/17 09:08:58;;;;;;;16.58;7.93;;;8.40;99.90;;;;;;5022562;28;20063;-68
2021/12/17 09:11:27;;;;;;;18.85;8.70;;;8.30;99.90;;;;;;5045276;28;20230;-69
2021/12/17 09:13:58;;;;;;;17.52;7.53;;;9.10;99.90;;;;;;5045505;28;20076;-68
2021/12/17 09:16:24;;;;;;;15.60;7.57;;;8.40;99.90;;;;;;5044270;28;20163;-69
2021/12/17 09:18:52;;;;;;;16.80;8.25;;;8.90;99.90;;;;;;5031742;28;20153;-68
2021/12/17 09:21:18;;;;;;;17.25;8.07;;;8.40;99.90;;;;;;5037625;28;20540;-68
2021/12/17 09:23:45;;;;;;;18.17;7.70;;;8.40;99.90;;;;;;5021726;28;20053;-70
2021/12/17 09:26:12;;;;;;;16.75;8.13;;;8.40;99.90;;;;;;5045652;28;20041;-69
2021/12/17 09:28:38;;;;;;;17.73;9.07;;;8.50;99.90;;;;;;5025191;28;20448;-69
2021/12/17 09:31:05;;;;;;;18.17;9.00;;;8.50;99.90;;;;;;5017855;28;20111;-69
2021/12/17 09:33:34;;;;;;;20.52;9.68;;;8.50;99.90;;;;;;5024095;28;20092;-69
2021/12/17 09:36:00;;;;;;;18.52;9.50;;;8.50;99.90;;;;;;5048767;28;20037;-70
2021/12/17 09:38:26;;;;;;;19.35;9.25;;;8.50;99.90;;;;;;5048148;28;20060;-69
2021/12/17 09:40:51;;;;;;;20.50;8.82;;;8.50;99.90;;;;;;5032103;28;20148;-69
2021/12/17 09:43:17;;;;;;;19.75;8.32;;;8.50;99.90;;;;;;5023927;28;20050;-69
2021/12/17 09:45:44;;;;;;;20.38;9.43;;;8.50;99.90;;;;;;5049113;28;20044;-69
2021/12/17 09:48:12;;;;;;;20.48;9.02;;;8.50;99.90;;;;;;4998686;28;20092;-69
2021/12/17 09:50:38;;;;;;;19.30;8.45;;;8.60;99.90;;;;;;5049007;28;20041;-68
2021/12/17 09:53:03;;;;;;;18.15;9.65;;;8.80;99.90;;;;;;5045705;28;20155;-68
2021/12/17 09:55:29;;;;;;;18.55;8.98;;;8.80;99.90;;;;;;5024822;28;20041;-68
2021/12/17 09:57:55;;;;;;;17.38;8.25;;;8.60;99.90;;;;;;5043457;28;20051;-68
2021/12/17 10:00:24;;;;;;;18.10;7.82;;;8.60;99.90;;;;;;5022447;28;20119;-68
2021/12/17 10:02:50;;;;;;;17.38;7.82;;;8.60;99.90;;;;;;5045706;28;20045;-71
2021/12/17 10:05:27;;;;;;;18.23;9.35;;;8.90;99.90;;;;;;5020997;28;20148;-69
2021/12/17 10:07:59;;;;;;;19.10;9.73;;;8.60;99.90;;;;;;5024568;28;20053;-72
2021/12/17 10:10:36;;;;;;;19.85;9.00;;;8.70;99.90;;;;;;5025891;28;20115;-72
2021/12/17 10:13:13;;;;;;;21.73;10.27;;;8.90;99.90;;;;;;5044133;28;20076;-73
2021/12/17 10:15:43;;;;;;;21.23;10.18;;;8.70;99.90;;;;;;5038365;28;21155;-70
2021/12/17 10:18:09;;;;;;;22.63;10.30;;;8.70;99.90;;;;;;5044259;28;20045;-67
2021/12/17 10:20:59;;;;;;;19.30;9.77;;;8.70;99.90;;;;;;5039305;28;20041;-70
2021/12/17 10:23:27;;;;;;;18.98;8.85;;;8.70;99.90;;;;;;5048510;28;20048;-71
2021/12/17 10:25:53;;;;;;;20.88;9.50;;;9.00;99.90;;;;;;5026172;28;20041;-80
2021/12/17 10:28:19;;;;;;;20.55;9.13;;;8.90;99.90;;;;;;5033534;28;20052;-78
2021/12/17 10:30:48;;;;;;;19.40;9.20;;;8.90;99.90;;;;;;5039068;28;20116;-74
2021/12/17 10:33:18;;;;;;;18.83;8.48;;;8.80;99.90;;;;;;5048796;28;20041;-78
2021/12/17 10:35:48;;;;;;;19.52;9.63;;;8.80;99.90;;;;;;5049215;28;20044;-78
2021/12/17 10:38:17;;;;;;;18.88;8.18;;;8.80;99.90;;;;;;5029680;28;20037;-79
2021/12/17 10:40:52;;;;;;;18.60;8.80;;;8.80;99.90;;;;;;5039934;28;20049;-79
2021/12/17 10:43:26;;;;;;;18.48;8.57;;;9.00;99.90;;;;;;5051417;28;20059;-79
2021/12/17 10:48:47;;;;;;;17.27;7.40;;;8.90;99.90;;;;;;5048583;28;20563;-76
2021/12/17 10:54:15;;;;;;;20.42;7.90;;;8.90;99.90;;;;;;5048839;28;20049;-82
2021/12/17 10:56:46;;;;;;;19.33;8.00;;;8.90;99.90;;;;;;5046644;28;20057;-83
2021/12/17 10:59:18;;;;;;;18.48;7.35;;;9.20;99.90;;;;;;5031116;28;20460;-71
2021/12/17 11:01:53;;;;;;;14.93;7.05;;;9.00;99.90;;;;;;5049259;28;20095;-80
2021/12/17 11:04:19;;;;;;;20.08;7.50;;;9.00;99.90;;;;;;5019369;28;20098;-71
2021/12/17 11:07:04;;;;;;;19.88;7.47;;;9.00;99.90;;;;;;5023837;28;20041;-73
2021/12/17 11:09:34;;;;;;;16.30;7.25;;;9.10;99.90;;;;;;5026392;28;20064;-73
2021/12/17 11:12:02;;;;;;;18.48;8.75;;;9.10;99.90;;;;;;5025653;28;20053;-71
2021/12/17 11:14:29;;;;;;;15.95;6.40;;;9.10;99.90;;;;;;5010367;28;20053;-69
2021/12/17 11:16:54;;;;;;;11.57;5.28;;;9.20;99.90;;;;;;5049633;28;20055;-77
2021/12/17 11:19:21;;;;;;;11.73;4.93;;;9.20;99.90;;;;;;5022375;28;20041;-71
2021/12/17 11:21:47;;;;;;;10.43;4.53;;;9.10;99.90;;;;;;5046982;28;20072;-74
2021/12/17 11:24:13;;;;;;;11.77;4.30;;;9.10;99.90;;;;;;5026159;28;20056;-70
2021/12/17 11:26:40;;;;;;;10.20;4.25;;;9.30;99.90;;;;;;5025990;28;20428;-73
2021/12/17 11:29:07;;;;;;;9.80;3.28;;;9.10;99.90;;;;;;5043155;28;20044;-69
2021/12/17 11:31:33;;;;;;;13.45;3.60;;;9.00;99.90;;;;;;5028316;28;20420;-72
2021/12/17 11:34:01;;;;;;;6.68;2.20;;;9.20;99.90;;;;;;5030144;28;20094;-70
2021/12/17 11:36:28;;;;;;;6.63;1.60;;;9.10;99.90;;;;;;5028665;28;20500;-74
2021/12/17 11:39:08;;;;;;;4.65;1.40;;;9.00;99.90;;;;;;5026046;28;20060;-69
2021/12/17 11:42:05;;;;;;;5.15;1.70;;;9.10;99.90;;;;;;5051263;28;20041;-71
2021/12/17 11:44:40;;;;;;;4.47;1.40;;;9.10;99.90;;;;;;5030107;28;20084;-74
2021/12/17 11:47:12;;;;;;;3.90;1.30;;;9.10;99.90;;;;;;5048872;28;20056;-68
2021/12/17 11:49:46;;;;;;;3.88;1.42;;;9.10;99.90;;;;;;5047964;28;20488;-72
2021/12/17 11:52:12;;;;;;;3.65;1.10;;;9.20;99.90;;;;;;5025725;28;20055;-73
2021/12/17 11:54:37;;;;;;;4.57;1.70;;;9.10;99.90;;;;;;5049643;28;20132;-70
2021/12/17 11:57:10;;;;;;;3.28;1.25;;;9.10;99.90;;;;;;5049681;28;20552;-72
2021/12/17 11:59:43;;;;;;;3.28;1.15;;;9.10;99.90;;;;;;5030226;28;20049;-69
2021/12/17 12:02:14;;;;;;;2.72;1.08;;;9.00;99.90;;;;;;5050149;28;20524;-69
2021/12/17 12:04:49;;;;;;;3.38;1.10;;;9.10;99.90;;;;;;5051565;28;20573;-70
2021/12/17 12:07:25;;;;;;;2.63;1.00;;;9.10;99.90;;;;;;5045610;28;20520;-69
2021/12/17 12:09:57;;;;;;;3.65;1.25;;;9.10;99.90;;;;;;5043081;28;20492;-69
2021/12/17 12:12:34;;;;;;;5.78;1.30;;;9.10;99.90;;;;;;5050819;28;20037;-69
2021/12/17 12:15:20;;;;;;;4.43;1.88;;;9.00;99.90;;;;;;5025742;28;20054;-72
2021/12/17 12:17:57;;;;;;;3.47;1.58;;;9.30;99.90;;;;;;5041548;28;20045;-72
2021/12/17 12:20:38;;;;;;;3.75;1.45;;;9.10;99.90;;;;;;5031185;28;20083;-68
2021/12/17 12:23:37;;;;;;;4.63;2.13;;;9.10;99.90;;;;;;5047118;28;20034;-70
2021/12/17 12:26:03;;;;;;;3.33;1.33;;;9.10;99.90;;;;;;5014738;28;20102;-71
2021/12/17 12:28:42;;;;;;;2.53;1.33;;;9.10;99.90;;;;;;5045474;28;20471;-72
2021/12/17 12:31:08;;;;;;;2.88;0.80;;;9.10;99.90;;;;;;5046033;28;20037;-71
2021/12/17 12:33:33;;;;;;;6.50;3.05;;;9.50;99.90;;;;;;5050015;28;20545;-73
2021/12/17 12:35:59;;;;;;;8.27;4.10;;;9.10;99.90;;;;;;5050973;28;20128;-67
2021/12/17 12:38:31;;;;;;;3.78;1.30;;;9.10;99.90;;;;;;5035469;28;20037;-70
2021/12/17 12:40:59;;;;;;;;;;;9.30;99.90;;;;;;5028492;28;20045;-71
2021/12/17 12:43:29;;;;;;;5.00;1.50;;;9.20;99.90;;;;;;5024110;28;19964;-69
2021/12/17 12:45:55;;;;;;;4.18;1.42;;;9.40;99.90;;;;;;5024296;28;20462;-72
2021/12/17 12:48:42;;;;;;;4.35;1.80;;;9.10;99.90;;;;;;5038982;28;20067;-75
2021/12/17 12:51:22;;;;;;;3.38;1.33;;;9.10;99.90;;;;;;5048339;28;20048;-70
2021/12/17 12:54:08;;;;;;;5.13;1.90;;;9.10;99.90;;;;;;5040128;28;20061;-69
2021/12/17 12:56:39;;;;;;;5.18;1.77;;;9.00;99.90;;;;;;5014065;28;20136;-71
2021/12/17 12:59:09;;;;;;;3.97;1.58;;;9.10;99.90;;;;;;5048671;28;20057;-71
2021/12/17 13:01:35;;;;;;;5.53;1.75;;;9.00;99.90;;;;;;5045796;28;20132;-70
2021/12/17 13:04:07;;;;;;;5.57;2.78;;;9.10;99.90;;;;;;5049981;28;20127;-72
2021/12/17 13:06:32;;;;;;;5.25;1.98;;;9.10;99.90;;;;;;5018344;28;20065;-70
2021/12/17 13:08:59;;;;;;;5.30;1.80;;;9.20;99.90;;;;;;5026977;28;20045;-70
2021/12/17 13:11:26;;;;;;;6.32;2.90;;;9.10;99.90;;;;;;5042543;28;20095;-70
2021/12/17 13:13:59;;;;;;;7.28;3.35;;;9.10;99.90;;;;;;5024805;28;20056;-74
2021/12/17 13:24:26;;;;;;;7.50;3.22;;;9.10;99.90;;;;;;5045836;28;20063;-71
2021/12/17 13:26:53;;;;;;;8.63;3.35;;;9.10;99.90;;;;;;5043242;28;20056;-73
2021/12/17 13:29:33;;;;;;;8.40;3.72;;;9.10;99.90;;;;;;5026019;28;20061;-76
2021/12/17 13:32:10;;;;;;;9.48;3.78;;;9.10;99.90;;;;;;5040651;28;20133;-74
2021/12/17 13:34:37;;;;;;;8.68;3.63;;;9.10;99.90;;;;;;5039427;28;20041;-71
2021/12/17 13:37:07;;;;;;;7.70;3.20;;;9.10;99.90;;;;;;5022817;28;20140;-70
2021/12/17 13:39:40;;;;;;;9.63;3.78;;;9.30;99.90;;;;;;5047131;28;20048;-72
2021/12/17 13:42:07;;;;;;;7.53;3.75;;;9.10;99.90;;;;;;5049761;28;20472;-74
2021/12/17 13:45:00;;;;;;;8.10;3.67;;;9.40;99.90;;;;;;5050220;28;20045;-74
2021/12/17 13:47:36;;;;;;;;;;;9.10;99.90;;;;;;4951917;28;20067;-71
2021/12/17 13:50:11;;;;;;;7.65;3.38;;;9.10;99.90;;;;;;4953231;28;19922;-72
2021/12/17 13:52:48;;;;;;;7.90;3.15;;;9.10;99.90;;;;;;4969733;28;20098;-73
2021/12/17 13:55:18;;;;;;;8.13;3.42;;;9.10;99.90;;;;;;4969847;28;20239;-70
2021/12/17 13:57:45;;;;;;;8.73;3.53;;;9.10;99.90;;;;;;4951293;28;20086;-73
2021/12/17 14:00:20;;;;;;;21.20;12.38;;;9.10;99.90;;;;;;4952313;28;20050;-72
2021/12/17 14:02:47;;;;;;;19.83;11.35;;;9.10;99.90;;;;;;4969511;28;20082;-70
2021/12/17 14:05:28;;;;;;;22.10;14.30;;;9.10;99.90;;;;;;4969526;28;20058;-70
2021/12/17 14:07:59;;;;;;;18.55;8.75;;;9.30;99.90;;;;;;4967038;28;20046;-72
2021/12/17 14:10:31;;;;;;;9.25;3.90;;;9.10;99.90;;;;;;4952861;28;20507;-72
2021/12/17 14:12:58;;;;;;;9.57;3.45;;;9.10;99.90;;;;;;4969646;28;20050;-70
2021/12/17 14:15:34;;;;;;;13.88;6.35;;;9.10;99.90;;;;;;4969770;28;20046;-70
2021/12/17 14:18:05;;;;;;;11.93;5.65;;;9.10;99.90;;;;;;4966871;28;20050;-72
2021/12/17 14:20:39;;;;;;;11.68;5.57;;;9.10;99.90;;;;;;4958400;28;20054;-73
2021/12/17 14:23:11;;;;;;;12.13;5.40;;;9.30;99.90;;;;;;4973733;28;20538;-73
2021/12/17 14:26:00;;;;;;;13.10;6.33;;;9.10;99.90;;;;;;5038802;28;20118;-72
2021/12/17 14:28:30;;;;;;;13.32;5.97;;;9.10;99.90;;;;;;5049908;28;20097;-71
2021/12/17 14:31:03;;;;;;;14.55;6.63;;;9.10;99.90;;;;;;5045444;28;20109;-72
2021/12/17 14:33:36;;;;;;;13.13;6.57;;;9.10;99.90;;;;;;5044995;28;20515;-70
2021/12/17 14:36:08;;;;;;;13.82;6.80;;;9.20;99.90;;;;;;5052752;28;20088;-71
2021/12/17 14:38:43;;;;;;;16.27;6.97;;;9.20;99.90;;;;;;5030658;28;20040;-72
2021/12/17 14:41:18;;;;;;;13.13;6.50;;;9.10;99.90;;;;;;5025040;28;20048;-71
2021/12/17 14:43:54;;;;;;;13.55;6.63;;;9.30;99.90;;;;;;5044019;28;20103;-71
2021/12/17 14:46:26;;;;;;;14.43;6.53;;;9.10;99.90;;;;;;5044448;28;21496;-72
2021/12/17 14:57:54;;;;;;;13.65;6.57;;;9.10;99.90;;;;;;5024061;28;20111;-71
2021/12/17 15:03:40;;;;;;;13.50;5.75;;;9.10;99.90;;;;;;5038816;28;20049;-72
2021/12/17 15:06:07;;;;;;;13.38;6.20;;;9.10;99.90;;;;;;5029120;28;20106;-72
2021/12/17 15:08:33;;;;;;;13.65;5.93;;;9.10;99.90;;;;;;5034006;28;20476;-71
2021/12/17 15:11:02;;;;;;;13.60;6.65;;;9.00;99.90;;;;;;5029226;28;20540;-71
2021/12/17 15:13:28;;;;;;;12.52;4.82;;;9.00;99.90;;;;;;5030010;28;20404;-71
2021/12/17 15:15:54;;;;;;;11.85;4.40;;;9.00;99.90;;;;;;5052640;28;20037;-72
2021/12/17 15:18:20;;;;;;;11.82;4.70;;;9.30;99.90;;;;;;5051074;28;20542;-72
2021/12/17 15:20:48;;;;;;;11.93;4.80;;;9.20;99.90;;;;;;5032953;28;20041;-72
2021/12/17 15:23:15;;;;;;;9.57;3.90;;;9.40;99.90;;;;;;5052270;28;20052;-72
2021/12/17 15:25:42;;;;;;;10.27;4.60;;;9.00;99.90;;;;;;5037305;28;20100;-73
2021/12/17 15:28:11;;;;;;;9.57;4.00;;;9.00;99.90;;;;;;5034705;28;20045;-72
2021/12/17 15:30:45;;;;;;;11.27;4.47;;;9.00;99.90;;;;;;5025589;28;20049;-71
2021/12/17 15:33:13;;;;;;;9.88;4.00;;;9.00;99.90;;;;;;5052050;28;20128;-71
2021/12/17 15:35:40;;;;;;;10.73;4.55;;;9.20;99.90;;;;;;5052628;28;20500;-71
2021/12/17 15:38:08;;;;;;;13.50;4.72;;;8.90;99.90;;;;;;5033048;28;20045;-73
2021/12/17 15:40:35;;;;;;;14.30;4.43;;;9.30;99.90;;;;;;5049036;28;20095;-75
2021/12/17 15:43:04;;;;;;;11.43;4.47;;;8.90;99.90;;;;;;5051484;28;20308;-73
2021/12/17 15:45:38;;;;;;;10.55;4.47;;;9.30;99.90;;;;;;5031146;28;20056;-73
2021/12/17 15:48:09;;;;;;;21.85;10.70;;;8.90;99.90;;;;;;5047141;28;20550;-75
2021/12/17 15:50:35;;;;;;;12.10;6.25;;;8.90;99.90;;;;;;5033976;28;20573;-74
2021/12/17 15:53:00;;;;;;;12.73;7.00;;;8.90;99.90;;;;;;5016021;28;20041;-75
2021/12/17 15:55:28;;;;;;;12.75;6.28;;;8.90;99.90;;;;;;5024572;28;20049;-73
2021/12/17 15:57:56;;;;;;;12.20;6.57;;;9.10;99.90;;;;;;5026936;28;20554;-71
2021/12/17 16:00:23;;;;;;;12.90;6.50;;;9.00;99.90;;;;;;5016043;28;20108;-74
2021/12/17 16:02:50;;;;;;;12.05;6.60;;;9.50;99.90;;;;;;5047230;28;20076;-73
2021/12/17 16:05:17;;;;;;;13.88;6.93;;;8.90;99.90;;;;;;5050939;28;20437;-76
2021/12/17 16:07:45;;;;;;;12.88;6.80;;;9.30;99.90;;;;;;5013187;28;20067;-73
2021/12/17 16:23:37;;;;;;;15.02;7.63;;;8.90;99.90;;;;;;4969991;28;20046;-74
2021/12/17 16:26:06;;;;;;;14.68;8.00;;;8.80;99.90;;;;;;4953724;28;20439;-74
2021/12/17 16:28:33;;;;;;;14.93;7.10;;;8.80;99.90;;;;;;4952000;28;20384;-73